Buoy 51659

sailwx.info

Track history (hours):
 
Tides and Currents Weather Stations Pressure Air Temp Water Temp Dewpoint Dewpoint Depression Visibility Wind Speed Wind Dir Waves Ship Positions

Drifting buoy 51659

Last reported at 2016-Jun-24 18:00 UTC. Time now 2016-Jun-24 20:21 UTC.
Position S 07°13' W 175°57'.

Water temperature 29.7 ° C

Date/timePositionNaut miles runAvg speedWind from/ knotsBaromVisibWave heightAir tempDewpointWater temp
2016-Jun-24 18:00S 07°13' W 175°57'2 0.4 29.7
2016-Jun-24 13:00S 07°14' W 175°55'0 0.0 29.8
2016-Jun-24 10:00S 07°14' W 175°55'1 1.1 29.8
2016-Jun-24 09:00S 07°13' W 175°54'1 0.9 29.8
2016-Jun-24 08:00S 07°14' W 175°55'2 1.5 29.8
2016-Jun-24 07:00S 07°12' W 175°54'0 0.4 29.8
2016-Jun-24 06:00S 07°12' W 175°55'2 1.0 29.8
2016-Jun-24 04:00S 07°11' W 175°53'1 0.7 29.9
2016-Jun-24 02:00S 07°11' W 175°52'0 0.0 30.0
2016-Jun-24 01:00S 07°11' W 175°52'1 0.1 30.0
2016-Jun-23 20:00S 07°11' W 175°51'1 0.9 29.8
2016-Jun-23 19:00S 07°10' W 175°52'1 0.6 29.8
2016-Jun-23 17:00S 07°09' W 175°51'1 1.2 29.8
2016-Jun-23 16:00S 07°08' W 175°50'2 0.7 29.8
2016-Jun-23 13:00S 07°08' W 175°48'0 0.1 29.9
2016-Jun-23 09:00S 07°07' W 175°48'1 1.5 29.9
2016-Jun-23 08:00S 07°06' W 175°48'0 0.0 29.9
2016-Jun-23 07:00S 07°06' W 175°48'1 0.7 30.0
2016-Jun-23 05:00S 07°05' W 175°46'1 0.8 30.0
2016-Jun-23 04:00S 07°05' W 175°46'1 0.5 30.0
2016-Jun-23 02:00S 07°04' W 175°45'1 0.2 30.1
2016-Jun-22 21:00S 07°04' W 175°44'1 0.6 29.9
2016-Jun-22 20:00S 07°04' W 175°44'0 0.4 29.9
2016-Jun-22 19:00S 07°04' W 175°44'0 0.4 29.9
2016-Jun-22 18:00S 07°04' W 175°44'1 0.7 29.9
2016-Jun-22 16:00S 07°04' W 175°43'0 0.0 29.9
2016-Jun-22 15:00S 07°04' W 175°43'0 0.0 29.9
2016-Jun-22 14:00S 07°04' W 175°43'1 1.3 29.9
2016-Jun-22 13:00S 07°04' W 175°42'0 0.0 30.0
2016-Jun-22 10:00S 07°04' W 175°42'0 0.3 30.0
2016-Jun-22 09:00S 07°05' W 175°41'0 0.0 30.0
2016-Jun-22 08:00S 07°05' W 175°41'0 0.0 30.1
2016-Jun-22 07:00S 07°05' W 175°41'1 0.7 30.1
2016-Jun-22 05:00S 07°04' W 175°40'1 0.8 30.2
2016-Jun-22 04:00S 07°04' W 175°39'0 0.2 30.3
2016-Jun-22 02:00S 07°04' W 175°39'1 0.2 30.4
2016-Jun-21 21:00S 07°04' W 175°38'0 0.0 30.0
2016-Jun-21 20:00S 07°04' W 175°38'0 0.2 30.0
2016-Jun-21 19:00S 07°04' W 175°39'1 0.2 30.0
2016-Jun-21 16:00S 07°03' W 175°38'1 0.6 30.0
2016-Jun-21 15:00S 07°03' W 175°38'1 0.8 30.0
2016-Jun-21 14:00S 07°02' W 175°37'0 0.0 30.0
2016-Jun-21 13:00S 07°02' W 175°37'1 0.2 30.0
2016-Jun-21 08:00S 07°02' W 175°38'0 0.0 30.3
2016-Jun-21 06:00S 07°02' W 175°38'0 0.4 30.6
2016-Jun-21 05:00S 07°02' W 175°37'0 0.0 31.0
2016-Jun-21 03:00S 07°02' W 175°37'0 0.1 31.5
2016-Jun-21 01:00S 07°02' W 175°37'0 0.0 31.2
2016-Jun-21 00:00S 07°02' W 175°37'1 0.2 30.4
2016-Jun-20 20:00S 07°02' W 175°38'0 0.0 30.0
2016-Jun-20 19:00S 07°02' W 175°38'1 0.3 30.0
2016-Jun-20 17:00S 07°01' W 175°38'0 0.0 30.0
2016-Jun-20 16:00S 07°01' W 175°38'0 0.0 30.0
2016-Jun-20 14:00S 07°01' W 175°38'1 0.2 30.0
2016-Jun-20 08:00S 07°01' W 175°37'1 1.3 30.1
2016-Jun-20 07:00S 06°60' W 175°38'1 0.6 30.1
2016-Jun-20 05:00S 06°60' W 175°37'1 0.7 30.2
2016-Jun-20 04:00S 07°01' W 175°37'0 0.1 30.2
2016-Jun-20 03:00S 07°01' W 175°37'1 0.6 30.3
2016-Jun-20 02:00S 07°01' W 175°37'0 0.1 30.4
2016-Jun-20 01:00S 07°01' W 175°36'1 0.1 30.3
2016-Jun-19 20:00S 07°02' W 175°36'2 0.5 30.0
2016-Jun-19 16:00S 07°01' W 175°35'1 0.3 30.0
2016-Jun-19 14:00S 07°02' W 175°34'1 0.3 30.0
2016-Jun-19 10:00S 07°01' W 175°33'0 0.2 30.1
2016-Jun-19 09:00S 07°01' W 175°33'1 0.5 30.2
2016-Jun-19 08:00S 07°02' W 175°34'1 0.6 30.4
2016-Jun-19 06:00S 07°01' W 175°33'0 0.1 30.7
2016-Jun-19 05:00S 07°01' W 175°33'1 0.3 30.9
2016-Jun-19 03:00S 07°01' W 175°32'0 0.1 31.1
2016-Jun-19 01:00S 07°01' W 175°32'2 0.4 30.6
2016-Jun-18 20:00S 06°60' W 175°31'1 0.7 30.0
2016-Jun-18 18:00S 06°60' W 175°32'1 1.3 30.0
2016-Jun-18 17:00S 07°00' W 175°31'0 0.2 29.9
2016-Jun-18 16:00S 06°60' W 175°31'1 0.3 30.0
2016-Jun-18 13:00S 06°59' W 175°30'1 0.1 29.9
2016-Jun-18 09:00S 06°59' W 175°29'0 0.3 30.0
2016-Jun-18 08:00S 06°59' W 175°30'0 0.1 30.0
2016-Jun-18 07:00S 06°59' W 175°30'0 0.1 30.0
2016-Jun-18 05:00S 06°59' W 175°29'1 0.5 30.0
2016-Jun-18 04:00S 06°59' W 175°29'0 0.0 30.0
2016-Jun-18 03:00S 06°59' W 175°29'0 0.1 30.0
2016-Jun-18 01:00S 06°60' W 175°29'2 0.4 30.0
2016-Jun-17 21:00S 06°59' W 175°28'0 0.2 29.9
2016-Jun-17 20:00S 06°58' W 175°28'1 1.1 29.9
2016-Jun-17 19:00S 06°59' W 175°28'1 0.3 29.9
2016-Jun-17 17:00S 06°59' W 175°28'0 0.3 30.0
2016-Jun-17 16:00S 06°59' W 175°28'1 0.5 30.0
2016-Jun-17 14:00S 06°60' W 175°27'0 0.0 30.0
2016-Jun-17 13:00S 06°60' W 175°27'0 0.0 30.0
2016-Jun-17 12:00S 06°60' W 175°27'1 0.5 30.0
2016-Jun-17 10:00S 06°59' W 175°26'0 0.4 30.0
2016-Jun-17 09:00S 06°59' W 175°26'0 0.0 30.0
2016-Jun-17 08:00S 06°59' W 175°26'1 0.6 30.0
2016-Jun-17 07:00S 06°58' W 175°26'0 0.4 30.1
2016-Jun-17 06:00S 06°58' W 175°25'0 0.0 30.1
2016-Jun-17 05:00S 06°58' W 175°25'1 1.0 30.2
2016-Jun-17 04:00S 06°59' W 175°25'0 0.0 30.2
2016-Jun-17 03:00S 06°59' W 175°25'1 0.7 30.2
2016-Jun-17 02:00S 06°59' W 175°25'0 0.0 30.2
2016-Jun-17 01:00S 06°59' W 175°25'2 0.5 30.2
2016-Jun-16 21:00S 06°59' W 175°23'0 0.2 30.0
2016-Jun-16 19:00S 06°58' W 175°23'1 0.4 30.0
2016-Jun-16 17:00S 06°58' W 175°22'2 0.4 30.0
2016-Jun-16 13:00S 06°59' W 175°21'1 0.1 30.0
2016-Jun-16 08:00S 06°58' W 175°20'1 0.4 30.0
2016-Jun-16 05:00S 06°59' W 175°19'0 0.0 30.3
2016-Jun-16 04:00S 06°59' W 175°19'2 0.9 31.2
2016-Jun-16 02:00S 07°01' W 175°18'0 0.0 31.8
2016-Jun-16 01:00S 07°01' W 175°18'0 0.0 32.2
2016-Jun-15 20:00S 07°01' W 175°18'1 1.0 30.0
2016-Jun-15 19:00S 07°02' W 175°19'1 0.7 30.0
2016-Jun-15 18:00S 07°01' W 175°19'1 0.7 30.0
2016-Jun-15 16:00S 07°03' W 175°19'1 0.5 30.0
2016-Jun-15 13:00S 07°04' W 175°20'0 0.1 30.0
2016-Jun-15 10:00S 07°04' W 175°20'1 0.6 30.0
2016-Jun-15 09:00S 07°04' W 175°20'1 0.7 30.0
2016-Jun-15 08:00S 07°05' W 175°20'2 0.5 30.0
2016-Jun-15 05:00S 07°04' W 175°21'0 0.4 30.0
2016-Jun-15 04:00S 07°04' W 175°22'1 0.3 30.0
2016-Jun-15 02:00S 07°05' W 175°22'0 0.0 30.0
2016-Jun-14 22:00S 07°05' W 175°22'1 0.3 30.0
2016-Jun-14 20:00S 07°05' W 175°22'1 0.7 30.0
2016-Jun-14 18:00S 07°06' W 175°24'   30.0
Track history (hours):
 
Tides and Currents Weather Stations Pressure Air Temp Water Temp Dewpoint Dewpoint Depression Visibility Wind Speed Wind Dir Waves Ship Positions

Drifting buoy 51659

Last reported at 2016-Jun-24 18:00 UTC. Time now 2016-Jun-24 20:21 UTC.
Position S 07°13' W 175°57'.

Water temperature 29.7 ° C

Date/timePositionNaut miles runAvg speedWind from/ knotsBaromVisibWave heightAir tempDewpointWater temp
2016-Jun-24 18:00S 07°13' W 175°57'2 0.4 29.7
2016-Jun-24 13:00S 07°14' W 175°55'0 0.0 29.8
2016-Jun-24 10:00S 07°14' W 175°55'1 1.1 29.8
2016-Jun-24 09:00S 07°13' W 175°54'1 0.9 29.8
2016-Jun-24 08:00S 07°14' W 175°55'2 1.5 29.8
2016-Jun-24 07:00S 07°12' W 175°54'0 0.4 29.8
2016-Jun-24 06:00S 07°12' W 175°55'2 1.0 29.8
2016-Jun-24 04:00S 07°11' W 175°53'1 0.7 29.9
2016-Jun-24 02:00S 07°11' W 175°52'0 0.0 30.0
2016-Jun-24 01:00S 07°11' W 175°52'1 0.1 30.0
2016-Jun-23 20:00S 07°11' W 175°51'1 0.9 29.8
2016-Jun-23 19:00S 07°10' W 175°52'1 0.6 29.8
2016-Jun-23 17:00S 07°09' W 175°51'1 1.2 29.8
2016-Jun-23 16:00S 07°08' W 175°50'2 0.7 29.8
2016-Jun-23 13:00S 07°08' W 175°48'0 0.1 29.9
2016-Jun-23 09:00S 07°07' W 175°48'1 1.5 29.9
2016-Jun-23 08:00S 07°06' W 175°48'0 0.0 29.9
2016-Jun-23 07:00S 07°06' W 175°48'1 0.7 30.0
2016-Jun-23 05:00S 07°05' W 175°46'1 0.8 30.0
2016-Jun-23 04:00S 07°05' W 175°46'1 0.5 30.0
2016-Jun-23 02:00S 07°04' W 175°45'1 0.2 30.1
2016-Jun-22 21:00S 07°04' W 175°44'1 0.6 29.9
2016-Jun-22 20:00S 07°04' W 175°44'0 0.4 29.9
2016-Jun-22 19:00S 07°04' W 175°44'0 0.4 29.9
2016-Jun-22 18:00S 07°04' W 175°44'1 0.7 29.9
2016-Jun-22 16:00S 07°04' W 175°43'0 0.0 29.9
2016-Jun-22 15:00S 07°04' W 175°43'0 0.0 29.9
2016-Jun-22 14:00S 07°04' W 175°43'1 1.3 29.9
2016-Jun-22 13:00S 07°04' W 175°42'0 0.0 30.0
2016-Jun-22 10:00S 07°04' W 175°42'0 0.3 30.0
2016-Jun-22 09:00S 07°05' W 175°41'0 0.0 30.0
2016-Jun-22 08:00S 07°05' W 175°41'0 0.0 30.1
2016-Jun-22 07:00S 07°05' W 175°41'1 0.7 30.1
2016-Jun-22 05:00S 07°04' W 175°40'1 0.8 30.2
2016-Jun-22 04:00S 07°04' W 175°39'0 0.2 30.3
2016-Jun-22 02:00S 07°04' W 175°39'1 0.2 30.4
2016-Jun-21 21:00S 07°04' W 175°38'0 0.0 30.0
2016-Jun-21 20:00S 07°04' W 175°38'0 0.2 30.0
2016-Jun-21 19:00S 07°04' W 175°39'1 0.2 30.0
2016-Jun-21 16:00S 07°03' W 175°38'1 0.6 30.0
2016-Jun-21 15:00S 07°03' W 175°38'1 0.8 30.0
2016-Jun-21 14:00S 07°02' W 175°37'0 0.0 30.0
2016-Jun-21 13:00S 07°02' W 175°37'1 0.2 30.0
2016-Jun-21 08:00S 07°02' W 175°38'0 0.0 30.3
2016-Jun-21 06:00S 07°02' W 175°38'0 0.4 30.6
2016-Jun-21 05:00S 07°02' W 175°37'0 0.0 31.0
2016-Jun-21 03:00S 07°02' W 175°37'0 0.1 31.5
2016-Jun-21 01:00S 07°02' W 175°37'0 0.0 31.2
2016-Jun-21 00:00S 07°02' W 175°37'1 0.2 30.4
2016-Jun-20 20:00S 07°02' W 175°38'0 0.0 30.0
2016-Jun-20 19:00S 07°02' W 175°38'1 0.3 30.0
2016-Jun-20 17:00S 07°01' W 175°38'0 0.0 30.0
2016-Jun-20 16:00S 07°01' W 175°38'0 0.0 30.0
2016-Jun-20 14:00S 07°01' W 175°38'1 0.2 30.0
2016-Jun-20 08:00S 07°01' W 175°37'1 1.3 30.1
2016-Jun-20 07:00S 06°60' W 175°38'1 0.6 30.1
2016-Jun-20 05:00S 06°60' W 175°37'1 0.7 30.2
2016-Jun-20 04:00S 07°01' W 175°37'0 0.1 30.2
2016-Jun-20 03:00S 07°01' W 175°37'1 0.6 30.3
2016-Jun-20 02:00S 07°01' W 175°37'0 0.1 30.4
2016-Jun-20 01:00S 07°01' W 175°36'1 0.1 30.3
2016-Jun-19 20:00S 07°02' W 175°36'2 0.5 30.0
2016-Jun-19 16:00S 07°01' W 175°35'1 0.3 30.0
2016-Jun-19 14:00S 07°02' W 175°34'1 0.3 30.0
2016-Jun-19 10:00S 07°01' W 175°33'0 0.2 30.1
2016-Jun-19 09:00S 07°01' W 175°33'1 0.5 30.2
2016-Jun-19 08:00S 07°02' W 175°34'1 0.6 30.4
2016-Jun-19 06:00S 07°01' W 175°33'0 0.1 30.7
2016-Jun-19 05:00S 07°01' W 175°33'1 0.3 30.9
2016-Jun-19 03:00S 07°01' W 175°32'0 0.1 31.1
2016-Jun-19 01:00S 07°01' W 175°32'2 0.4 30.6
2016-Jun-18 20:00S 06°60' W 175°31'1 0.7 30.0
2016-Jun-18 18:00S 06°60' W 175°32'1 1.3 30.0
2016-Jun-18 17:00S 07°00' W 175°31'0 0.2 29.9
2016-Jun-18 16:00S 06°60' W 175°31'1 0.3 30.0
2016-Jun-18 13:00S 06°59' W 175°30'1 0.1 29.9
2016-Jun-18 09:00S 06°59' W 175°29'0 0.3 30.0
2016-Jun-18 08:00S 06°59' W 175°30'0 0.1 30.0
2016-Jun-18 07:00S 06°59' W 175°30'0 0.1 30.0
2016-Jun-18 05:00S 06°59' W 175°29'1 0.5 30.0
2016-Jun-18 04:00S 06°59' W 175°29'0 0.0 30.0
2016-Jun-18 03:00S 06°59' W 175°29'0 0.1 30.0
2016-Jun-18 01:00S 06°60' W 175°29'2 0.4 30.0
2016-Jun-17 21:00S 06°59' W 175°28'0 0.2 29.9
2016-Jun-17 20:00S 06°58' W 175°28'1 1.1 29.9
2016-Jun-17 19:00S 06°59' W 175°28'1 0.3 29.9
2016-Jun-17 17:00S 06°59' W 175°28'0 0.3 30.0
2016-Jun-17 16:00S 06°59' W 175°28'1 0.5 30.0
2016-Jun-17 14:00S 06°60' W 175°27'0 0.0 30.0
2016-Jun-17 13:00S 06°60' W 175°27'0 0.0 30.0
2016-Jun-17 12:00S 06°60' W 175°27'1 0.5 30.0
2016-Jun-17 10:00S 06°59' W 175°26'0 0.4 30.0
2016-Jun-17 09:00S 06°59' W 175°26'0 0.0 30.0
2016-Jun-17 08:00S 06°59' W 175°26'1 0.6 30.0
2016-Jun-17 07:00S 06°58' W 175°26'0 0.4 30.1
2016-Jun-17 06:00S 06°58' W 175°25'0 0.0 30.1
2016-Jun-17 05:00S 06°58' W 175°25'1 1.0 30.2
2016-Jun-17 04:00S 06°59' W 175°25'0 0.0 30.2
2016-Jun-17 03:00S 06°59' W 175°25'1 0.7 30.2
2016-Jun-17 02:00S 06°59' W 175°25'0 0.0 30.2
2016-Jun-17 01:00S 06°59' W 175°25'2 0.5 30.2
2016-Jun-16 21:00S 06°59' W 175°23'0 0.2 30.0
2016-Jun-16 19:00S 06°58' W 175°23'1 0.4 30.0
2016-Jun-16 17:00S 06°58' W 175°22'2 0.4 30.0
2016-Jun-16 13:00S 06°59' W 175°21'1 0.1 30.0
2016-Jun-16 08:00S 06°58' W 175°20'1 0.4 30.0
2016-Jun-16 05:00S 06°59' W 175°19'0 0.0 30.3
2016-Jun-16 04:00S 06°59' W 175°19'2 0.9 31.2
2016-Jun-16 02:00S 07°01' W 175°18'0 0.0 31.8
2016-Jun-16 01:00S 07°01' W 175°18'0 0.0 32.2
2016-Jun-15 20:00S 07°01' W 175°18'1 1.0 30.0
2016-Jun-15 19:00S 07°02' W 175°19'1 0.7 30.0
2016-Jun-15 18:00S 07°01' W 175°19'1 0.7 30.0
2016-Jun-15 16:00S 07°03' W 175°19'1 0.5 30.0
2016-Jun-15 13:00S 07°04' W 175°20'0 0.1 30.0
2016-Jun-15 10:00S 07°04' W 175°20'1 0.6 30.0
2016-Jun-15 09:00S 07°04' W 175°20'1 0.7 30.0
2016-Jun-15 08:00S 07°05' W 175°20'2 0.5 30.0
2016-Jun-15 05:00S 07°04' W 175°21'0 0.4 30.0
2016-Jun-15 04:00S 07°04' W 175°22'1 0.3 30.0
2016-Jun-15 02:00S 07°05' W 175°22'0 0.0 30.0
2016-Jun-14 22:00S 07°05' W 175°22'1 0.3 30.0
2016-Jun-14 20:00S 07°05' W 175°22'1 0.7 30.0
2016-Jun-14 18:00S 07°06' W 175°24'   30.0

Dump ship's entire track history